createdAt,value
2022-10-30T00:00:52.810Z,15.62
2022-10-30T00:03:20.411Z,15.65
2022-10-30T00:05:49.988Z,15.67
2022-10-30T00:08:20.119Z,15.72
2022-10-30T00:10:50.516Z,15.74
2022-10-30T00:13:18.927Z,15.70
2022-10-30T00:15:51.119Z,15.67
2022-10-30T00:18:20.490Z,15.56
2022-10-30T00:20:48.675Z,15.52
2022-10-30T00:23:17.012Z,15.47
2022-10-30T00:25:44.504Z,15.39
2022-10-30T00:28:12.219Z,15.35
2022-10-30T00:30:40.410Z,15.40
2022-10-30T00:33:07.958Z,15.34
2022-10-30T00:35:35.503Z,15.28
2022-10-30T00:38:03.321Z,15.24
2022-10-30T00:40:30.838Z,15.20
2022-10-30T00:42:58.451Z,15.19
2022-10-30T00:45:26.137Z,15.17
2022-10-30T00:48:00.459Z,15.23
2022-10-30T00:50:34.645Z,15.29
2022-10-30T00:53:09.140Z,15.40
2022-10-30T00:55:43.107Z,15.36
2022-10-30T00:58:15.220Z,15.37
2022-10-30T01:00:46.631Z,15.31
2022-10-30T01:03:15.369Z,15.32
2022-10-30T01:05:48.041Z,15.41
2022-10-30T01:08:15.750Z,15.54
2022-10-30T01:10:43.982Z,15.65
2022-10-30T01:13:11.939Z,15.75
2022-10-30T01:15:53.778Z,15.70
2022-10-30T01:18:42.663Z,15.65
2022-10-30T01:21:20.119Z,15.60
2022-10-30T01:24:07.410Z,15.57
2022-10-30T01:26:47.144Z,15.50
2022-10-30T01:29:39.435Z,15.45
2022-10-30T01:32:24.878Z,15.46
2022-10-30T01:35:06.006Z,15.44
2022-10-30T01:37:40.199Z,15.38
2022-10-30T01:40:13.037Z,15.33
2022-10-30T01:42:49.645Z,15.40
2022-10-30T01:45:24.806Z,15.41
2022-10-30T01:48:01.466Z,15.48
2022-10-30T01:50:50.823Z,15.46
2022-10-30T01:53:44.398Z,15.40
2022-10-30T01:56:39.356Z,15.36
2022-10-30T01:59:26.372Z,15.39
2022-10-30T02:01:54.231Z,15.45
2022-10-30T02:04:22.115Z,15.30
2022-10-30T02:06:51.778Z,15.05
2022-10-30T02:09:19.218Z,14.92
2022-10-30T02:11:52.620Z,14.96
2022-10-30T02:14:34.905Z,15.01
2022-10-30T02:17:06.969Z,14.90
2022-10-30T02:19:35.187Z,14.71
2022-10-30T02:22:04.604Z,14.58
2022-10-30T02:24:33.604Z,14.53
2022-10-30T02:27:01.370Z,14.42
2022-10-30T02:29:29.020Z,14.37
2022-10-30T02:31:56.531Z,14.32
2022-10-30T02:34:24.128Z,14.22
2022-10-30T02:36:51.559Z,14.12
2022-10-30T02:39:21.640Z,14.02
2022-10-30T02:41:49.286Z,13.98
2022-10-30T02:44:16.839Z,14.12
2022-10-30T02:46:44.375Z,14.37
2022-10-30T02:49:12.265Z,14.53
2022-10-30T02:51:39.788Z,14.67
2022-10-30T02:54:07.269Z,14.74
2022-10-30T02:56:34.848Z,14.79
2022-10-30T02:59:02.296Z,14.86
2022-10-30T03:01:30.097Z,14.97
2022-10-30T03:03:59.569Z,15.02
2022-10-30T03:06:27.191Z,15.09
2022-10-30T03:08:54.718Z,15.10
2022-10-30T03:11:22.950Z,14.98
2022-10-30T03:13:50.857Z,14.84
2022-10-30T03:16:24.239Z,14.76
2022-10-30T03:18:52.939Z,14.70
2022-10-30T03:21:22.940Z,14.71
2022-10-30T03:23:50.966Z,14.71
2022-10-30T03:26:19.559Z,14.68
2022-10-30T03:28:51.294Z,14.59
2022-10-30T03:31:20.220Z,14.55
2022-10-30T03:33:52.749Z,14.47
2022-10-30T03:36:20.377Z,14.54
2022-10-30T03:38:47.993Z,14.60
2022-10-30T03:41:19.245Z,14.68
2022-10-30T03:43:46.789Z,14.78
2022-10-30T03:46:14.199Z,14.90
2022-10-30T03:48:41.927Z,15.09
2022-10-30T03:51:10.387Z,15.14
2022-10-30T03:53:37.947Z,15.16
2022-10-30T03:56:06.017Z,15.06
2022-10-30T03:58:46.578Z,14.83
2022-10-30T04:01:18.425Z,14.63
2022-10-30T04:03:50.002Z,14.46
2022-10-30T04:06:17.926Z,14.36
2022-10-30T04:08:45.478Z,14.33
2022-10-30T04:11:13.093Z,14.37
2022-10-30T04:13:40.592Z,14.49
2022-10-30T04:16:08.219Z,14.69
2022-10-30T04:18:35.719Z,14.96
2022-10-30T04:21:03.729Z,15.12
2022-10-30T04:23:32.530Z,15.25
2022-10-30T04:26:01.328Z,15.36
2022-10-30T04:28:29.178Z,15.45
2022-10-30T04:30:57.408Z,15.51
2022-10-30T04:33:26.896Z,15.51
2022-10-30T04:35:55.299Z,15.13
2022-10-30T04:38:23.186Z,14.90
2022-10-30T04:40:50.847Z,14.69
2022-10-30T04:43:19.215Z,14.63
2022-10-30T04:45:50.657Z,14.72
2022-10-30T04:48:19.650Z,14.83
2022-10-30T04:50:48.288Z,14.85
2022-10-30T04:53:23.838Z,14.74
2022-10-30T04:55:57.351Z,14.55
2022-10-30T04:58:24.898Z,14.44
2022-10-30T05:01:05.778Z,14.39
2022-10-30T05:03:34.388Z,14.38
2022-10-30T05:06:06.190Z,14.41
2022-10-30T05:08:34.087Z,14.56
2022-10-30T05:11:10.439Z,14.79
2022-10-30T05:13:38.041Z,14.99
2022-10-30T05:16:05.929Z,15.10
2022-10-30T05:18:34.435Z,15.20
2022-10-30T05:21:02.878Z,15.22
2022-10-30T05:23:30.450Z,15.22
2022-10-30T05:26:00.489Z,14.73
2022-10-30T05:28:28.508Z,14.51
2022-10-30T05:30:57.989Z,14.34
2022-10-30T05:33:45.620Z,14.26
2022-10-30T05:36:14.035Z,14.26
2022-10-30T05:38:42.688Z,14.26
2022-10-30T05:41:17.558Z,14.17
2022-10-30T05:43:45.306Z,14.18
2022-10-30T05:46:13.401Z,14.29
2022-10-30T05:48:40.992Z,14.30
2022-10-30T05:51:08.640Z,14.36
2022-10-30T05:53:38.758Z,14.41
2022-10-30T05:56:06.879Z,14.44
2022-10-30T05:58:35.879Z,14.46
2022-10-30T06:01:08.743Z,14.53
2022-10-30T06:03:43.961Z,14.62
2022-10-30T06:06:12.691Z,14.81
2022-10-30T06:08:40.109Z,14.90
2022-10-30T06:11:30.806Z,14.71
2022-10-30T06:14:00.370Z,14.77
2022-10-30T06:16:40.499Z,14.85
2022-10-30T06:19:18.700Z,14.97
2022-10-30T06:21:49.019Z,15.05
2022-10-30T06:24:35.685Z,15.18
2022-10-30T06:27:23.350Z,15.23
2022-10-30T06:29:51.079Z,15.22
2022-10-30T06:32:18.509Z,15.22
2022-10-30T06:34:46.828Z,15.31
2022-10-30T06:37:18.251Z,15.34
2022-10-30T06:39:45.825Z,15.26
2022-10-30T06:42:43.589Z,15.26
2022-10-30T06:45:24.230Z,15.29
2022-10-30T06:47:52.321Z,15.12
2022-10-30T06:50:22.185Z,15.02
2022-10-30T06:52:49.959Z,14.98
2022-10-30T06:55:19.139Z,15.06
2022-10-30T06:58:12.590Z,15.17
2022-10-30T07:01:01.117Z,15.33
2022-10-30T07:03:47.448Z,15.38
2022-10-30T07:06:15.139Z,15.44
2022-10-30T07:08:42.569Z,15.59
2022-10-30T07:11:10.968Z,15.73
2022-10-30T07:13:45.059Z,15.88
2022-10-30T07:16:28.228Z,16.15
2022-10-30T07:18:59.265Z,16.47
2022-10-30T07:21:29.890Z,16.71
2022-10-30T07:23:57.601Z,16.88
2022-10-30T07:26:38.299Z,17.03
2022-10-30T07:29:34.773Z,17.07
2022-10-30T07:32:13.302Z,17.27
2022-10-30T07:34:50.628Z,17.75
2022-10-30T07:37:34.036Z,17.84
2022-10-30T07:40:12.919Z,17.63
2022-10-30T07:43:19.649Z,17.22
2022-10-30T07:45:47.323Z,17.28
2022-10-30T07:48:38.814Z,17.49
2022-10-30T07:51:09.005Z,17.21
2022-10-30T07:53:36.618Z,17.16
2022-10-30T07:56:05.578Z,17.05
2022-10-30T07:58:51.691Z,17.20
2022-10-30T08:01:34.293Z,17.24
2022-10-30T08:04:32.382Z,17.54
2022-10-30T08:07:08.571Z,17.81
2022-10-30T08:09:36.030Z,17.94
2022-10-30T08:12:03.565Z,18.10
2022-10-30T08:14:32.109Z,18.23
2022-10-30T08:16:59.519Z,18.58
2022-10-30T08:19:27.112Z,18.91
2022-10-30T08:21:59.188Z,19.22
2022-10-30T08:24:28.094Z,19.55
2022-10-30T08:26:59.279Z,19.65
2022-10-30T08:29:28.039Z,19.83
2022-10-30T08:31:57.569Z,19.79
2022-10-30T08:34:26.787Z,19.62
2022-10-30T08:36:55.811Z,19.31
2022-10-30T08:39:25.015Z,18.87
2022-10-30T08:41:59.887Z,19.15
2022-10-30T08:44:31.739Z,19.37
2022-10-30T08:47:25.390Z,19.16
2022-10-30T08:49:53.780Z,18.76
2022-10-30T08:52:25.360Z,19.05
2022-10-30T08:54:56.401Z,19.34
2022-10-30T08:57:26.595Z,19.09
2022-10-30T08:59:57.008Z,18.70
2022-10-30T09:02:43.412Z,18.43
2022-10-30T09:05:37.745Z,18.51
2022-10-30T09:08:17.180Z,18.81
2022-10-30T09:11:07.869Z,19.12
2022-10-30T09:13:35.962Z,19.36
2022-10-30T09:16:05.948Z,19.47
2022-10-30T09:18:36.191Z,19.56
2022-10-30T09:21:05.148Z,19.64
2022-10-30T09:23:38.713Z,19.79
2022-10-30T09:26:32.286Z,19.98
2022-10-30T09:29:06.537Z,20.09
2022-10-30T09:31:56.938Z,20.29
2022-10-30T09:37:16.148Z,20.01
2022-10-30T09:39:46.527Z,19.83
2022-10-30T09:42:46.165Z,20.14
2022-10-30T09:45:37.928Z,20.53
2022-10-30T09:48:17.498Z,20.98
2022-10-30T09:51:09.829Z,21.03
2022-10-30T09:53:48.251Z,21.11
2022-10-30T09:56:36.528Z,21.10
2022-10-30T09:59:36.448Z,20.36
2022-10-30T10:02:17.564Z,19.94
2022-10-30T10:04:50.930Z,19.79
2022-10-30T10:07:59.998Z,19.41
2022-10-30T10:10:56.669Z,19.08
2022-10-30T10:13:34.149Z,18.86
2022-10-30T10:16:16.770Z,19.10
2022-10-30T10:18:58.768Z,19.26
2022-10-30T10:21:28.822Z,19.37
2022-10-30T10:24:00.921Z,19.48
2022-10-30T10:26:38.749Z,19.49
2022-10-30T10:29:35.527Z,19.32
2022-10-30T10:32:11.609Z,19.76
2022-10-30T10:35:01.576Z,19.99
2022-10-30T10:38:07.350Z,20.40
2022-10-30T10:40:44.977Z,20.78
2022-10-30T10:43:15.284Z,20.88
2022-10-30T10:45:53.708Z,20.89
2022-10-30T10:48:32.468Z,21.13
2022-10-30T10:51:07.098Z,21.43
2022-10-30T10:53:40.758Z,21.28
2022-10-30T10:56:09.849Z,21.16
2022-10-30T10:58:55.350Z,21.06
2022-10-30T11:01:46.645Z,20.86
2022-10-30T11:04:49.960Z,20.81
2022-10-30T11:07:39.777Z,20.78
2022-10-30T11:10:14.578Z,20.94
2022-10-30T11:12:42.672Z,20.96
2022-10-30T11:15:10.068Z,20.99
2022-10-30T11:17:54.843Z,20.96
2022-10-30T11:20:29.839Z,21.15
2022-10-30T11:22:57.565Z,21.12
2022-10-30T11:25:30.176Z,21.03
2022-10-30T11:28:04.790Z,20.81
2022-10-30T11:30:33.058Z,20.61
2022-10-30T11:33:22.357Z,20.43
2022-10-30T11:35:49.841Z,20.25
2022-10-30T11:38:20.558Z,20.12
2022-10-30T11:40:51.685Z,19.92
2022-10-30T11:43:24.083Z,19.58
2022-10-30T11:45:52.121Z,19.58
2022-10-30T11:48:31.695Z,19.39
2022-10-30T11:55:28.011Z,19.29
2022-10-30T11:57:58.518Z,19.32
2022-10-30T12:00:28.991Z,19.40
2022-10-30T12:03:01.062Z,19.58
2022-10-30T12:05:43.751Z,19.79
2022-10-30T12:08:19.197Z,19.92
2022-10-30T12:10:50.723Z,19.94
2022-10-30T12:13:21.856Z,19.96
2022-10-30T12:16:02.945Z,20.12
2022-10-30T12:18:31.300Z,20.12
2022-10-30T12:20:59.585Z,20.31
2022-10-30T12:23:29.234Z,20.49
2022-10-30T12:26:01.183Z,20.49
2022-10-30T12:28:32.244Z,20.52
2022-10-30T12:31:24.133Z,20.25
2022-10-30T12:34:09.389Z,20.13
2022-10-30T12:36:45.393Z,19.88
2022-10-30T12:39:27.925Z,19.80
2022-10-30T12:42:10.598Z,19.70
2022-10-30T12:44:43.902Z,19.58
2022-10-30T12:47:32.886Z,19.55
2022-10-30T12:50:15.496Z,19.59
2022-10-30T12:52:56.485Z,19.44
2022-10-30T12:55:37.205Z,19.36
2022-10-30T12:58:26.295Z,19.29
2022-10-30T13:01:01.927Z,19.25
2022-10-30T13:03:37.389Z,19.21
2022-10-30T13:06:23.884Z,19.10
2022-10-30T13:09:15.135Z,19.07
2022-10-30T13:11:51.751Z,19.11
2022-10-30T13:14:49.545Z,19.10
2022-10-30T13:17:17.208Z,19.14
2022-10-30T13:19:46.422Z,19.22
2022-10-30T13:22:30.144Z,19.31
2022-10-30T13:25:06.744Z,19.39
2022-10-30T13:27:59.293Z,19.51
2022-10-30T13:30:34.993Z,19.66
2022-10-30T13:33:24.412Z,19.69
2022-10-30T13:36:28.154Z,19.82
2022-10-30T13:39:21.256Z,19.81
2022-10-30T13:42:00.868Z,19.62
2022-10-30T13:44:46.859Z,19.63
2022-10-30T13:47:20.300Z,19.58
2022-10-30T13:49:55.053Z,19.52
2022-10-30T13:52:23.512Z,19.59
2022-10-30T13:54:59.291Z,19.58
2022-10-30T13:57:32.318Z,19.57
2022-10-30T14:00:19.754Z,19.48
2022-10-30T14:03:11.314Z,19.42
2022-10-30T14:05:44.564Z,19.46
2022-10-30T14:08:36.264Z,19.49
2022-10-30T14:11:06.496Z,19.58
2022-10-30T14:14:25.255Z,19.56
2022-10-30T14:17:13.008Z,19.57
2022-10-30T14:20:12.128Z,19.40
2022-10-30T14:22:41.708Z,19.33
2022-10-30T14:25:16.316Z,19.35
2022-10-30T14:27:54.650Z,19.33
2022-10-30T14:30:22.110Z,19.27
2022-10-30T14:32:53.440Z,19.27
2022-10-30T14:35:33.041Z,19.17
2022-10-30T14:38:06.683Z,19.05
2022-10-30T14:40:56.420Z,18.99
2022-10-30T14:43:41.662Z,18.94
2022-10-30T14:46:42.159Z,18.87
2022-10-30T14:49:34.053Z,18.89
2022-10-30T14:52:10.488Z,18.83
2022-10-30T14:54:59.199Z,18.71
2022-10-30T14:57:48.295Z,18.58
2022-10-30T15:00:24.924Z,18.54
2022-10-30T15:03:07.293Z,18.56
2022-10-30T15:05:58.927Z,18.55
2022-10-30T15:09:02.255Z,18.49
2022-10-30T15:12:02.892Z,18.39
2022-10-30T15:14:59.972Z,18.29
2022-10-30T15:17:44.467Z,18.17
2022-10-30T15:20:25.508Z,17.93
2022-10-30T15:22:58.841Z,17.84
2022-10-30T15:25:33.533Z,17.73
2022-10-30T15:28:01.836Z,17.58
2022-10-30T15:30:29.631Z,17.52
2022-10-30T15:32:57.370Z,17.38
2022-10-30T15:35:29.021Z,17.18
2022-10-30T15:38:07.599Z,17.09
2022-10-30T15:40:37.122Z,17.05
2022-10-30T15:43:08.574Z,17.05
2022-10-30T15:45:41.952Z,17.01
2022-10-30T15:48:36.453Z,16.97
2022-10-30T15:51:12.859Z,16.89
2022-10-30T15:53:43.159Z,16.93
2022-10-30T15:56:20.171Z,16.82
2022-10-30T15:58:54.500Z,16.78
2022-10-30T16:01:27.893Z,16.73
2022-10-30T16:03:55.503Z,16.58
2022-10-30T16:06:27.034Z,16.48
2022-10-30T16:08:54.573Z,16.41
2022-10-30T16:11:23.343Z,16.31
2022-10-30T16:13:51.614Z,16.23
2022-10-30T16:16:19.005Z,16.20
2022-10-30T16:18:46.878Z,16.14
2022-10-30T16:21:18.783Z,16.08
2022-10-30T16:23:52.843Z,16.05
2022-10-30T16:26:32.961Z,16.02
2022-10-30T16:29:08.967Z,15.99
2022-10-30T16:31:37.976Z,15.99
2022-10-30T16:34:17.579Z,15.97
2022-10-30T16:36:45.492Z,15.94
2022-10-30T16:39:17.318Z,15.92
2022-10-30T16:41:45.485Z,15.95
2022-10-30T16:44:12.836Z,15.95
2022-10-30T16:46:47.813Z,15.91
2022-10-30T16:49:19.238Z,15.81
2022-10-30T16:51:48.042Z,15.88
2022-10-30T16:54:21.697Z,15.95
2022-10-30T16:56:52.754Z,16.05
2022-10-30T16:59:52.242Z,16.21
2022-10-30T17:02:22.714Z,16.27
2022-10-30T17:04:58.245Z,16.31
2022-10-30T17:07:27.225Z,16.32
2022-10-30T17:09:57.021Z,16.27
2022-10-30T17:12:29.726Z,16.29
2022-10-30T17:15:06.049Z,16.32
2022-10-30T17:17:36.579Z,16.32
2022-10-30T17:20:15.187Z,16.28
2022-10-30T17:22:42.864Z,16.27
2022-10-30T17:25:27.779Z,16.20
2022-10-30T17:27:55.290Z,16.06
2022-10-30T17:30:41.143Z,15.88
2022-10-30T17:33:35.460Z,15.85
2022-10-30T17:36:04.995Z,15.86
2022-10-30T17:38:33.401Z,15.79
2022-10-30T17:41:01.700Z,15.66
2022-10-30T17:43:50.494Z,15.58
2022-10-30T17:46:20.197Z,15.50
2022-10-30T17:48:48.500Z,15.44
2022-10-30T17:51:17.272Z,15.34
2022-10-30T17:53:47.044Z,15.28
2022-10-30T17:56:18.014Z,15.21
2022-10-30T17:58:45.521Z,15.21
2022-10-30T18:01:26.143Z,15.21
2022-10-30T18:03:57.672Z,15.23
2022-10-30T18:06:27.630Z,15.25
2022-10-30T18:08:55.541Z,15.18
2022-10-30T18:11:24.885Z,15.04
2022-10-30T18:13:53.044Z,15.00
2022-10-30T18:16:20.787Z,15.02
2022-10-30T18:18:48.382Z,15.07
2022-10-30T18:21:18.734Z,15.04
2022-10-30T18:23:52.441Z,15.00
2022-10-30T18:26:23.494Z,15.02
2022-10-30T18:28:51.039Z,15.08
2022-10-30T18:31:22.413Z,15.15
2022-10-30T18:33:50.370Z,15.11
2022-10-30T18:36:22.884Z,15.08
2022-10-30T18:38:52.843Z,15.04
2022-10-30T18:41:25.052Z,14.97
2022-10-30T18:43:52.637Z,14.89
2022-10-30T18:46:19.992Z,14.89
2022-10-30T18:48:47.575Z,14.96
2022-10-30T18:51:24.103Z,15.08
2022-10-30T18:53:52.405Z,15.22
2022-10-30T18:56:21.854Z,15.40
2022-10-30T18:58:53.574Z,15.56
2022-10-30T19:01:24.842Z,15.62
2022-10-30T19:03:52.443Z,15.82
2022-10-30T19:06:23.503Z,15.86
2022-10-30T19:08:51.336Z,15.79
2022-10-30T19:11:24.525Z,15.67
2022-10-30T19:13:54.443Z,15.58
2022-10-30T19:16:25.437Z,15.48
2022-10-30T19:18:54.103Z,15.35
2022-10-30T19:21:26.267Z,15.23
2022-10-30T19:23:58.559Z,15.22
2022-10-30T19:26:26.039Z,15.24
2022-10-30T19:28:53.581Z,15.25
2022-10-30T19:31:21.070Z,15.22
2022-10-30T19:33:53.025Z,15.21
2022-10-30T19:36:43.971Z,15.22
2022-10-30T19:39:13.924Z,15.25
2022-10-30T19:41:41.626Z,15.29
2022-10-30T19:44:09.678Z,15.33
2022-10-30T19:46:37.223Z,15.38
2022-10-30T19:49:16.754Z,15.44
2022-10-30T19:51:44.310Z,15.44
2022-10-30T19:54:11.686Z,15.47
2022-10-30T19:56:39.242Z,15.54
2022-10-30T19:59:15.582Z,15.67
2022-10-30T20:01:44.764Z,15.79
2022-10-30T20:04:12.749Z,15.83
2022-10-30T20:06:40.368Z,15.80
2022-10-30T20:09:13.359Z,15.77
2022-10-30T20:11:40.956Z,15.78
2022-10-30T20:14:08.422Z,15.82
2022-10-30T20:16:35.883Z,15.88
2022-10-30T20:19:24.641Z,15.93
2022-10-30T20:21:52.088Z,15.99
2022-10-30T20:24:19.542Z,16.06
2022-10-30T20:26:47.055Z,16.11
2022-10-30T20:29:14.799Z,16.03
2022-10-30T20:31:42.285Z,15.91
2022-10-30T20:34:09.713Z,15.82
2022-10-30T20:36:37.104Z,15.75
2022-10-30T20:39:04.631Z,15.67
2022-10-30T20:41:33.261Z,15.62
2022-10-30T20:44:00.703Z,15.50
2022-10-30T20:46:28.183Z,15.45
2022-10-30T20:48:56.554Z,15.38
2022-10-30T20:51:24.152Z,15.30
2022-10-30T20:53:51.723Z,15.24
2022-10-30T20:56:19.174Z,15.23
2022-10-30T20:58:46.671Z,15.22
2022-10-30T21:01:14.218Z,15.18
2022-10-30T21:03:41.703Z,15.15
2022-10-30T21:06:10.028Z,15.18
2022-10-30T21:08:37.731Z,15.20
2022-10-30T21:11:07.323Z,15.22
2022-10-30T21:13:36.217Z,15.35
2022-10-30T21:16:06.331Z,15.48
2022-10-30T21:18:33.831Z,15.50
2022-10-30T21:21:07.447Z,15.55
2022-10-30T21:23:35.125Z,15.63
2022-10-30T21:26:07.741Z,15.68
2022-10-30T21:28:35.159Z,15.70
2022-10-30T21:31:07.194Z,15.69
2022-10-30T21:33:36.450Z,15.65
2022-10-30T21:36:12.877Z,15.70
2022-10-30T21:38:42.293Z,15.72
2022-10-30T21:41:12.423Z,15.75
2022-10-30T21:43:40.134Z,15.76
2022-10-30T21:46:09.344Z,15.77
2022-10-30T21:48:36.812Z,15.70
2022-10-30T21:51:09.862Z,15.70
2022-10-30T21:53:37.670Z,15.62
2022-10-30T21:56:07.063Z,15.54
2022-10-30T21:58:34.770Z,15.50
2022-10-30T22:01:02.559Z,15.50
2022-10-30T22:03:29.989Z,15.45
2022-10-30T22:05:57.433Z,15.37
2022-10-30T22:08:24.935Z,15.32
2022-10-30T22:10:52.325Z,15.22
2022-10-30T22:13:19.751Z,15.16
2022-10-30T22:15:54.972Z,15.14
2022-10-30T22:18:22.513Z,15.23
2022-10-30T22:20:49.954Z,15.31
2022-10-30T22:23:17.447Z,15.36
2022-10-30T22:25:53.313Z,15.41
2022-10-30T22:28:20.715Z,15.41
2022-10-30T22:30:48.259Z,15.43
2022-10-30T22:33:16.587Z,15.38
2022-10-30T22:35:44.114Z,15.36
2022-10-30T22:38:11.763Z,15.41
2022-10-30T22:40:39.853Z,15.48
2022-10-30T22:43:07.346Z,15.58
2022-10-30T22:45:34.943Z,15.70
2022-10-30T22:48:02.987Z,15.82
2022-10-30T22:50:30.630Z,15.85
2022-10-30T22:52:59.168Z,15.84
2022-10-30T22:55:28.431Z,15.84
2022-10-30T22:57:55.883Z,15.79
2022-10-30T23:00:30.249Z,15.75
2022-10-30T23:02:58.147Z,15.71
2022-10-30T23:05:25.795Z,15.67
2022-10-30T23:07:53.273Z,15.64
2022-10-30T23:10:20.720Z,15.58
2022-10-30T23:12:48.133Z,15.47
2022-10-30T23:15:15.611Z,15.38
2022-10-30T23:17:43.516Z,15.27
2022-10-30T23:20:11.391Z,15.20
2022-10-30T23:22:38.793Z,15.13
2022-10-30T23:25:06.444Z,15.04
2022-10-30T23:27:34.083Z,14.99
2022-10-30T23:30:01.410Z,14.88
2022-10-30T23:32:28.873Z,14.75
2022-10-30T23:34:56.283Z,14.71
2022-10-30T23:37:23.773Z,14.69
2022-10-30T23:39:51.194Z,14.61
2022-10-30T23:42:18.853Z,14.57
2022-10-30T23:44:46.284Z,14.50
2022-10-30T23:47:13.795Z,14.45
2022-10-30T23:49:41.152Z,14.43
2022-10-30T23:52:08.627Z,14.39
2022-10-30T23:54:36.089Z,14.37
2022-10-30T23:57:04.118Z,14.38
2022-10-30T23:59:31.568Z,14.39
